• Join FlightAware (Why Join?)
  • Login
  • US Flag 
06:22AM EDT


 

Airport Tracker/Info


-or-


 

Live Flight TrackerFlight Track Log ✈ EJA831 ✈ 15-Sep-2013 ✈ KAMA - MMLO / BJX

Flight Track Log - Related Links

Times and Time Zones

All times are in EDT time to prevent confusion due to time zone crossing. See the EJA831 flight status page for this flight to view local times or setup timezone preferences in your user account.

Time Position Orientation Groundspeed Altitude Reporting Facility
EDT Latitude Longitude Course Direction KTS MPH feet Rate Location/Type
10:51AM 35.1525 -101.7247 176° South 199 229 7,500  Level Fort Worth Center
10:52AM 35.0672 -101.7175 176° South 244 281 10,100 2,280 Climbing Fort Worth Center
10:53AM 34.9856 -101.7097 176° South 287 330 12,300 2,100 Climbing Fort Worth Center
10:53AM 34.9856 -101.7097 176° South 278 320 12,300 2,280 Level Albuquerque Center
10:54AM 34.8986 -101.7022 176° South 302 348 14,600 2,220 Climbing Albuquerque Center
10:55AM 34.8111 -101.6933 175° South 314 361 16,900 2,040 Climbing Albuquerque Center
10:56AM 34.7253 -101.6869 176° South 312 359 18,900 1,740 Climbing Albuquerque Center
10:57AM 34.6369 -101.6781 175° South 314 361 20,600 1,500 Climbing Albuquerque Center
10:58AM 34.5458 -101.6703 176° South 325 374 22,000 1,320 Climbing Albuquerque Center
10:59AM 34.4383 -101.6617 176° South 323 372 23,400 1,140 Climbing Albuquerque Center
11:00AM 34.3500 -101.6542 176° South 320 368 24,400 900 Climbing Albuquerque Center
11:01AM 34.2597 -101.6447 175° South 324 373 25,300 840 Climbing Albuquerque Center
11:02AM 34.1642 -101.6369 176° South 340 391 26,200 1,020 Climbing Albuquerque Center
11:03AM 34.0439 -101.6269 176° South 358 412 27,500 1,320 Climbing Fort Worth Center
11:05AM 33.9453 -101.6175 175° South 365 420 29,100 1,440 Climbing Fort Worth Center
11:06AM 33.8517 -101.6081 175° South 340 391 30,500 1,260 Climbing Fort Worth Center
11:07AM 33.7525 -101.5997 176° South 332 382 31,800 1,380 Climbing Fort Worth Center
11:08AM 33.6608 -101.5922 176° South 329 379 33,400 1,200 Climbing Fort Worth Center
11:09AM 33.5681 -101.5839 176° South 333 383 34,400 960 Climbing Fort Worth Center
11:10AM 33.4722 -101.5767 176° South 344 396 35,400 960 Climbing Fort Worth Center
11:11AM 33.3758 -101.5683 176° South 347 399 36,500 1,080 Climbing Fort Worth Center
11:12AM 33.2794 -101.5606 176° South 346 398 37,700 960 Climbing Fort Worth Center
11:13AM 33.1650 -101.5492 175° South 344 396 38,500 600 Climbing Fort Worth Center
11:14AM 33.0647 -101.5247 168° South 364 419 39,000 540 Climbing Fort Worth Center
11:15AM 32.9633 -101.5006 169° South 370 426 39,700 600 Climbing Fort Worth Center
11:16AM 32.8669 -101.4783 169° South 370 426 40,300 480 Climbing Fort Worth Center
11:17AM 32.7442 -101.4511 169° South 374 430 40,800 300 Climbing Fort Worth Center
11:18AM 32.6558 -101.4294 168° South 377 434 41,000 60 Climbing Fort Worth Center
11:19AM 32.5239 -101.4000 169° South 393 452 41,000  Level Fort Worth Center
11:20AM 32.4133 -101.3744 169° South 400 460 41,000  Level Fort Worth Center
11:21AM 32.3019 -101.3494 169° South 404 465 41,000  Level Fort Worth Center
11:22AM 32.1919 -101.3242 169° South 402 463 41,000  Level Fort Worth Center
11:23AM 32.0867 -101.2997 169° South 392 451 41,000  Level Fort Worth Center
11:24AM 31.9769 -101.2753 169° South 398 458 41,000  Level Fort Worth Center
11:25AM 31.8381 -101.2408 168° South 417 480 41,000  Level Fort Worth Center
11:26AM 31.7264 -101.2167 170° South 408 470 41,000  Level Fort Worth Center
11:27AM 31.6161 -101.1908 169° South 403 464 41,000  Level Fort Worth Center
11:28AM 31.5042 -101.1661 169° South 405 466 41,000  Level Fort Worth Center
11:29AM 31.3914 -101.1406 169° South 410 472 41,000  Level Fort Worth Center
11:30AM 31.2847 -101.1194 170° South 410 472 41,000  Level Fort Worth Center
11:31AM 31.1497 -101.0894 169° South 411 473 41,000  Level Fort Worth Center
11:32AM 31.0372 -101.0661 170° South 412 474 41,000  Level Fort Worth Center
11:34AM 30.9047 -101.0328 168° South 415 478 41,000  Level Houston Center
11:35AM 30.7917 -101.0078 169° South 414 476 41,000  Level Houston Center
11:36AM 30.6775 -100.9828 169° South 417 480 41,000  Level Houston Center
11:37AM 30.5644 -100.9583 169° South 416 479 41,000  Level Houston Center
11:38AM 30.4281 -100.9286 169° South 415 478 41,000  Level Houston Center
11:39AM 30.3142 -100.9039 169° South 418 481 41,000  Level Houston Center
11:40AM 30.2003 -100.8789 169° South 417 480 41,000  Level Houston Center
11:41AM 30.0872 -100.8536 169° South 417 480 41,000  Level Houston Center
11:42AM 29.9747 -100.8294 169° South 416 479 41,000  Level Houston Center
11:43AM 29.8389 -100.8003 169° South 416 479 41,000  Level Houston Center
11:44AM 29.7264 -100.7758 169° South 414 476 41,000  Level Houston Center
11:45AM 29.6139 -100.7511 169° South 414 476 41,000  Level Houston Center
11:46AM 29.5022 -100.7272 169° South 412 474 41,000  Level Houston Center
11:47AM 29.3900 -100.7019 169° South 412 474 41,000  Level Houston Center
11:48AM 29.2550 -100.6739 170° South 413 475 41,000  Level Houston Center
11:49AM 29.1431 -100.6500 169° South 409 471 41,000  Level Houston Center
11:50AM 29.0300 -100.6242 169° South 413 475 41,000  Level Houston Center
11:51AM 28.9167 -100.6014 170° South 415 478 41,000  Level Houston Center
11:52AM 28.8036 -100.5758 169° South 413 475 41,000  Level Houston Center
11:53AM 28.6686 -100.5478 170° South 411 473 41,000  Level Houston Center
11:55AM 28.5215 -100.5455 186° South  Level FlightAware Approximate
12:02PM 27.6698 -100.6533 186° South  Level FlightAware Approximate
12:03PM 27.5481 -100.6686 186° South  Level FlightAware Approximate
12:04PM 27.4264 -100.6839 186° South  Level FlightAware Approximate
12:05PM 27.3047 -100.6991 186° South  Level FlightAware Approximate
12:06PM 27.1830 -100.7142 186° South  Level FlightAware Approximate
12:07PM 27.0613 -100.7294 186° South  Level FlightAware Approximate
12:08PM 26.9396 -100.7445 186° South  Level FlightAware Approximate
12:09PM 26.8179 -100.7595 186° South  Level FlightAware Approximate
12:10PM 26.6962 -100.7746 186° South  Level FlightAware Approximate
12:11PM 26.5745 -100.7896 186° South  Level FlightAware Approximate
12:12PM 26.4528 -100.8046 186° South  Level FlightAware Approximate
12:13PM 26.3311 -100.8195 186° South  Level FlightAware Approximate
12:14PM 26.2093 -100.8344 186° South  Level FlightAware Approximate
12:15PM 26.0876 -100.8493 186° South  Level FlightAware Approximate
12:16PM 25.9659 -100.8641 186° South  Level FlightAware Approximate
12:17PM 25.8442 -100.8790 186° South  Level FlightAware Approximate
12:18PM 25.7225 -100.8937 186° South  Level FlightAware Approximate
12:19PM 25.6008 -100.9085 186° South  Level FlightAware Approximate
12:20PM 25.4791 -100.9236 187° South  Level FlightAware Approximate
12:21PM 25.3575 -100.9392 187° South  Level FlightAware Approximate
12:22PM 25.2358 -100.9547 187° South  Level FlightAware Approximate
12:23PM 25.1142 -100.9702 187° South  Level FlightAware Approximate
12:24PM 24.9925 -100.9856 187° South  Level FlightAware Approximate
12:25PM 24.8709 -101.0011 187° South  Level FlightAware Approximate
12:26PM 24.7493 -101.0165 187° South  Level FlightAware Approximate
12:27PM 24.6276 -101.0318 187° South  Level FlightAware Approximate
12:28PM 24.5060 -101.0472 187° South  Level FlightAware Approximate
12:29PM 24.3843 -101.0625 187° South  Level FlightAware Approximate
12:30PM 24.2627 -101.0778 187° South  Level FlightAware Approximate
12:31PM 24.1410 -101.0930 187° South  Level FlightAware Approximate
12:32PM 24.0194 -101.1082 187° South  Level FlightAware Approximate
12:33PM 23.8977 -101.1234 187° South  Level FlightAware Approximate
12:34PM 23.7761 -101.1386 187° South  Level FlightAware Approximate
12:35PM 23.6544 -101.1537 186° South  Level FlightAware Approximate
12:36PM 23.5327 -101.1667 180° South  Level FlightAware Approximate
12:37PM 23.4138 -101.1891 184° South  Level FlightAware Approximate
12:38PM 23.2917 -101.1993 184° South  Level FlightAware Approximate
12:39PM 23.1696 -101.2095 184° South  Level FlightAware Approximate
12:40PM 23.0478 -101.2223 188° South  Level FlightAware Approximate
12:41PM 22.9266 -101.2414 188° South  Level FlightAware Approximate
12:42PM 22.8054 -101.2606 188° South  Level FlightAware Approximate
12:43PM 22.6837 -101.2711 187° South  Level FlightAware Approximate
12:44PM 22.5621 -101.2873 187° South  Level FlightAware Approximate
12:45PM 22.4406 -101.3035 187° South  Level FlightAware Approximate
12:46PM 22.3191 -101.3197 187° South  Level FlightAware Approximate
12:47PM 22.1975 -101.3355 186° South  Level FlightAware Approximate
12:48PM 22.0758 -101.3496 186° South  Level FlightAware Approximate
12:49PM 21.9540 -101.3637 186° South  Level FlightAware Approximate
12:50PM 21.8323 -101.3777 186° South  Level FlightAware Approximate
12:51PM 21.7110 -101.3954 189° South  Level FlightAware Approximate
12:52PM 21.5892 -101.4042 188° South  Level FlightAware Approximate
12:53PM 21.4680 -101.4229 188° South  Level FlightAware Approximate
12:54PM 21.3464 -101.4387 185° South  Level FlightAware Approximate
12:55PM 21.2245 -101.4500 180° South  Level FlightAware Approximate
12:56PM 21.1028 -101.4594 191° South  Level FlightAware Approximate
12:57PM 20.9935 -101.4809 North  Level Estimated
12:58PM 20.9935 -101.4809 North  Level Estimated
12:59PM 20.9935 -101.4809 North  Level Estimated
01:00PM 20.9935 -101.4809 North  Level Estimated
01:01PM 20.9935 -101.4809 North  Level Estimated
01:02PM 20.9935 -101.4809 North  Level Estimated
01:03PM 20.9935 -101.4809 North  Level Estimated
01:04PM 20.9935 -101.4809 North  Level Estimated
01:05PM 20.9935 -101.4809 North  Level Estimated
01:06PM 20.9935 -101.4809 North  Level Estimated
01:07PM 20.9935 -101.4809 North  Level Estimated
01:08PM 20.9935 -101.4809 North  Level Estimated
01:09PM 20.9935 -101.4809 North  Level Estimated
01:10PM 20.9935 -101.4809 North  Level Estimated
01:11PM 20.9935 -101.4809 North  Level Estimated
01:12PM 20.9935 -101.4809 North  Level Estimated
01:13PM 20.9935 -101.4809 North  Level Estimated
01:14PM 20.9935 -101.4809 North  Level Estimated
01:15PM 20.9935 -101.4809 North  Level Estimated
01:16PM 20.9935 -101.4809 North  Level Estimated
01:17PM 20.9935 -101.4809 North  Level Estimated
01:18PM 20.9935 -101.4809 North  Level Estimated
01:19PM 20.9935 -101.4809 North  Level Estimated
01:20PM 20.9935 -101.4809 North  Level Estimated
01:21PM 20.9935 -101.4809 North  Level Estimated
01:22PM 20.9935 -101.4809 North  Level Estimated
01:23PM 20.9935 -101.4809 North  Level Estimated
01:24PM 20.9935 -101.4809 North  Level Estimated
01:25PM 20.9935 -101.4809 North  Level Estimated